METAR AND TAF INFORMATION
METAR FOR ZBAA
ZBAA 130930Z 18005MPS CAVOK 26/11 Q1008 NOSIG
ZBAA 130900Z 15005MPS 120V190 CAVOK 27/11 Q1009 NOSIG
ZBAA 130830Z 18006MPS 150V210 CAVOK 27/12 Q1009 NOSIG
ZBAA 130800Z 18005MPS 140V220 CAVOK 27/12 Q1009 NOSIG
ZBAA 130730Z 18007MPS 150V220 CAVOK 27/12 Q1010 NOSIG
ZBAA 130700Z 21006MPS CAVOK 27/13 Q1010 NOSIG
ZBAA 130630Z 18007MPS 140V220 CAVOK 27/13 Q1011 NOSIG

TAF ZBAA 130901Z 1312/1412 17004MPS 5000 BR NSC TX22/1312Z TN16/1321Z
TEMPO 1401/1407 -TSRA FEW030CB

 AIRPORT MAP

 RUNWAY INFORMATION
Runway 01 Runway length 12468 ft Runway width 197 ft
Runway elevation 94 ft Runway displaced threshold 0 ft Runway heading 353
Runway 19 Runway length 12468 ft Runway width 197 ft
Runway elevation 84 ft Runway displaced threshold 0 ft Runway heading 173
Runway 18L Runway length 12468 ft Runway width 197 ft
Runway elevation 110 ft Runway displaced threshold 0 ft Runway heading 173
Runway 36R Runway length 12468 ft Runway width 197 ft
Runway elevation 99 ft Runway displaced threshold 0 ft Runway heading 353
Runway 18R Runway length 10499 ft Runway width 164 ft
Runway elevation 116 ft Runway displaced threshold 0 ft Runway heading 173
Runway 36L Runway length 10499 ft Runway width 164 ft
Runway elevation 107 ft Runway displaced threshold 0 ft Runway heading 353

 AIRPORT FREQUENCIES
Type APP Name BEIJING AP Frequency 119.6 MHZ
Type APP Name BEIJING AP Frequency 126.1 MHZ
Type APP Name BEIJING AP Frequency 120.6 MHZ
Type APP Name BEIJING AP Frequency 119.7 MHZ
Type APP Name BEIJING AP Frequency 127.75 MHZ
Type APP Name BEIJING AP Frequency 121.1 MHZ
Type ATIS Name BEIJING AT Frequency 127.6 MHZ
Type CLD Name BEIJING DE Frequency 121.6 MHZ
Type GND Name GND EAST Frequency 121.7 MHZ
Type GND Name GND WEST Frequency 121.9 MHZ
Type GND Name BEIJING GN Frequency 121.7 MHZ
Type TWR Name BEIJING EA Frequency 118.5 MHZ
Type TWR Name BEIJING W Frequency 124.3 MHZ

 AIRPORT NEAR NAVIGATION AIDS
Type VOR-DME Name Beijing Frequency 114700 KHZ
Type VOR-DME Name Shaziying Frequency 117200 KHZ

-